Time;durP1;ratioP1;P1;durP2;ratioP2;P2;SDS_P1;SDS_P2;PMS_P1;PMS_P2;Temp;Humidity;BMP_temperature;BMP_pressure;BME280_temperature;BME280_humidity;BME280_pressure;Samples;Min_cycle;Max_cycle;Signal;HPM_P1;HPM_P2
2023/04/01 00:00:12;;;;;;;7.35;2.15;;;;;;;9.43;100.00;99070.44;5033759;28;20550;-72
2023/04/01 00:02:37;;;;;;;8.27;2.40;;;;;;;9.45;100.00;99082.69;5035073;28;20095;-72
2023/04/01 00:05:03;;;;;;;10.25;2.30;;;;;;;9.40;100.00;99084.53;5034874;28;20490;-72
2023/04/01 00:07:28;;;;;;;6.63;2.70;;;;;;;9.42;100.00;99079.22;5034709;28;20537;-71
2023/04/01 00:09:54;;;;;;;6.72;2.38;;;;;;;9.42;100.00;99077.47;5034803;28;20484;-72
2023/04/01 00:12:20;;;;;;;5.00;2.05;;;;;;;9.42;100.00;99089.75;5035057;28;20023;-72
2023/04/01 00:14:45;;;;;;;6.85;2.22;;;;;;;9.41;100.00;99077.47;5035015;28;20093;-72
2023/04/01 00:17:11;;;;;;;6.75;1.92;;;;;;;9.41;100.00;99078.34;5034944;28;20479;-72
2023/04/01 00:19:36;;;;;;;8.93;2.45;;;;;;;9.43;100.00;99081.84;5034727;28;20028;-71
2023/04/01 00:22:02;;;;;;;5.93;2.08;;;;;;;9.42;100.00;99092.41;5033458;28;20057;-71
2023/04/01 00:24:28;;;;;;;5.95;2.38;;;;;;;9.43;100.00;99081.84;5034697;28;20367;-70
2023/04/01 00:26:54;;;;;;;5.47;2.42;;;;;;;9.43;100.00;99086.25;5033069;28;20022;-71
2023/04/01 00:29:19;;;;;;;3.72;2.08;;;;;;;9.41;100.00;99088.03;5034599;28;20025;-71
2023/04/01 00:31:45;;;;;;;7.03;2.47;;;;;;;9.43;100.00;99083.63;5034152;28;20490;-70
2023/04/01 00:34:12;;;;;;;6.28;2.40;;;;;;;9.42;100.00;99090.66;5034593;28;20471;-70
2023/04/01 00:36:38;;;;;;;7.18;2.45;;;;;;;9.40;100.00;99092.44;5034433;28;20055;-71
2023/04/01 00:39:03;;;;;;;7.78;2.40;;;;;;;9.41;100.00;99088.03;5032741;28;20025;-70
2023/04/01 00:41:30;;;;;;;4.15;2.25;;;;;;;9.39;100.00;99085.41;5034328;28;20060;-71
2023/04/01 00:44:34;;;;;;;6.03;2.40;;;;;;;9.45;100.00;99090.59;5034165;28;20064;-71
2023/04/01 00:47:00;;;;;;;5.18;2.38;;;;;;;9.42;100.00;99103.84;4976646;28;20046;-70
2023/04/01 00:49:48;;;;;;;5.53;2.65;;;;;;;9.50;100.00;99098.44;5034114;28;20033;-70
2023/04/01 00:52:17;;;;;;;4.05;2.38;;;;;;;9.45;100.00;99103.78;5033923;28;20029;-70
2023/04/01 00:54:47;;;;;;;5.75;2.80;;;;;;;9.42;100.00;99098.56;5034091;28;20021;-70
2023/04/01 00:57:23;;;;;;;5.22;2.55;;;;;;;9.45;100.00;99111.69;5033891;28;20506;-70
2023/04/01 00:59:52;;;;;;;6.85;2.78;;;;;;;9.44;100.00;99102.03;5033986;28;20033;-70
2023/04/01 01:02:18;;;;;;;6.07;2.97;;;;;;;9.45;100.00;99111.69;5032374;28;20036;-70
2023/04/01 01:04:44;;;;;;;5.63;2.67;;;;;;;9.45;100.00;99105.53;5033857;28;20044;-70
2023/04/01 01:07:43;;;;;;;5.05;2.80;;;;;;;9.47;100.00;99109.06;5034124;28;20040;-71
2023/04/01 01:10:16;;;;;;;4.05;2.55;;;;;;;9.46;100.00;99113.47;5034065;28;20037;-70
2023/04/01 01:13:06;;;;;;;5.25;2.65;;;;;;;9.46;100.00;99112.56;5032527;28;20044;-70
2023/04/01 01:15:45;;;;;;;8.25;3.20;;;;;;;9.46;100.00;99112.56;5033657;28;20021;-71
2023/04/01 01:18:32;;;;;;;6.30;3.13;;;;;;;9.47;100.00;99117.84;5033392;28;20037;-71
2023/04/01 01:21:25;;;;;;;8.02;3.25;;;;;;;9.43;100.00;99118.75;5033650;28;20025;-70
2023/04/01 01:23:56;;;;;;;5.07;3.10;;;;;;;9.45;100.00;99132.78;5031932;28;20372;-71
2023/04/01 01:26:24;;;;;;;5.18;3.10;;;;;;;9.43;100.00;99120.53;5033466;28;20097;-70
2023/04/01 01:29:17;;;;;;;4.57;3.20;;;;;;;9.44;100.00;99123.13;5033679;28;20033;-71
2023/04/01 01:32:05;;;;;;;5.72;3.28;;;;;;;9.43;100.00;99133.72;5033708;28;20049;-71
2023/04/01 01:34:40;;;;;;;5.22;3.30;;;;;;;9.46;100.00;99125.75;5033397;28;20025;-71
2023/04/01 01:37:13;;;;;;;4.25;3.28;;;;;;;9.43;100.00;99131.94;5033341;28;20107;-71
2023/04/01 01:39:39;;;;;;;;;;;;;;;9.47;100.00;99135.41;5033786;28;20034;-71
2023/04/01 01:42:09;;;;;;;5.82;3.88;;;;;;;9.42;100.00;99132.84;5033422;28;19909;-71
2023/04/01 01:44:37;;;;;;;4.50;3.60;;;;;;;9.41;100.00;99138.97;5033338;28;20029;-71
2023/04/01 01:47:03;;;;;;;5.20;4.05;;;;;;;9.40;100.00;99125.84;5033069;28;20071;-71
2023/04/01 01:49:32;;;;;;;6.38;5.18;;;;;;;9.42;100.00;99137.22;5033200;28;20530;-71
2023/04/01 01:51:57;;;;;;;7.05;5.47;;;;;;;9.45;100.00;99131.91;5033090;28;20025;-72
2023/04/01 01:54:22;;;;;;;6.72;5.47;;;;;;;9.44;100.00;99132.81;5032978;28;20030;-72
2023/04/01 01:56:54;;;;;;;7.20;5.88;;;;;;;9.45;100.00;99145.97;5033100;28;20395;-72
2023/04/01 01:59:21;;;;;;;6.78;5.82;;;;;;;9.45;100.00;99153.00;5033225;28;20038;-72
2023/04/01 02:01:51;;;;;;;6.75;5.78;;;;;;;9.45;100.00;99145.09;5032967;28;20382;-72
2023/04/01 02:04:19;;;;;;;6.60;5.90;;;;;;;9.47;100.00;99156.50;5033260;28;20022;-72
2023/04/01 02:07:02;;;;;;;7.70;5.47;;;;;;;9.44;100.00;99154.78;5033372;28;20105;-72
2023/04/01 02:09:29;;;;;;;7.78;6.03;;;;;;;9.42;100.00;99160.94;5032603;28;20037;-71
2023/04/01 02:12:02;;;;;;;7.00;5.35;;;;;;;9.40;100.00;99149.56;5033181;28;20049;-71
2023/04/01 02:14:37;;;;;;;7.45;5.25;;;;;;;9.39;100.00;99159.22;5033148;28;20029;-71
2023/04/01 02:17:14;;;;;;;7.35;5.10;;;;;;;9.40;100.00;99162.72;5033109;28;20033;-71
2023/04/01 02:19:52;;;;;;;8.85;5.30;;;;;;;9.39;100.00;99168.91;5033337;28;20029;-72
2023/04/01 02:22:24;;;;;;;7.68;5.38;;;;;;;9.36;100.00;99167.16;5032895;28;20486;-71
2023/04/01 02:24:52;;;;;;;;;;;;;;;9.40;100.00;99166.25;5033010;28;20032;-71
2023/04/01 02:27:18;;;;;;;9.43;6.05;;;;;;;9.38;100.00;99177.69;5032710;28;19916;-71
2023/04/01 02:29:44;;;;;;;7.53;6.05;;;;;;;9.37;100.00;99173.31;5033119;28;20025;-71
2023/04/01 02:32:10;;;;;;;9.70;6.78;;;;;;;9.34;100.00;99173.38;5036817;28;20095;-70
2023/04/01 02:34:36;;;;;;;9.18;6.35;;;;;;;9.32;100.00;99164.59;5036635;28;20039;-70
2023/04/01 02:37:02;;;;;;;8.40;6.63;;;;;;;9.32;100.00;99165.44;5036936;28;20108;-70
2023/04/01 02:39:28;;;;;;;11.05;8.02;;;;;;;9.32;100.00;99172.50;5036489;28;20518;-70
2023/04/01 02:41:54;;;;;;;10.38;7.78;;;;;;;9.26;100.00;99163.78;5036844;28;20034;-70
2023/04/01 02:44:19;;;;;;;10.95;7.88;;;;;;;9.25;100.00;99164.66;5036338;28;20486;-70
2023/04/01 02:46:45;;;;;;;11.30;7.28;;;;;;;9.27;100.00;99175.19;5036585;28;20021;-70
2023/04/01 02:49:11;;;;;;;12.27;7.90;;;;;;;9.25;100.00;99169.06;5036397;28;20033;-71
2023/04/01 02:51:36;;;;;;;13.52;7.40;;;;;;;9.22;100.00;99172.59;5036382;28;20026;-71
2023/04/01 02:54:02;;;;;;;13.77;8.27;;;;;;;9.21;100.00;99172.63;5036240;28;20033;-71
2023/04/01 02:56:27;;;;;;;11.07;7.60;;;;;;;9.23;100.00;99181.38;5036326;28;20510;-71
2023/04/01 02:58:54;;;;;;;10.65;8.00;;;;;;;9.23;100.00;99184.00;5036351;28;20108;-72
2023/04/01 03:01:20;;;;;;;13.50;8.38;;;;;;;9.24;100.00;99178.72;5036269;28;20029;-71
2023/04/01 03:03:45;;;;;;;16.88;9.13;;;;;;;9.25;100.00;99183.13;5034513;28;20029;-72
2023/04/01 03:06:14;;;;;;;13.88;9.32;;;;;;;9.27;100.00;99191.88;5036169;28;20040;-72
2023/04/01 03:08:39;;;;;;;13.35;9.15;;;;;;;9.24;100.00;99191.00;5035641;28;20057;-72
2023/04/01 03:11:05;;;;;;;14.88;9.27;;;;;;;9.23;100.00;99186.66;5036051;28;20022;-72
2023/04/01 03:13:31;;;;;;;12.45;9.20;;;;;;;9.23;100.00;99189.28;5035773;28;20040;-72
2023/04/01 03:15:57;;;;;;;12.93;8.90;;;;;;;9.19;100.00;99196.34;5035889;28;20514;-72
2023/04/01 03:18:25;;;;;;;12.98;8.65;;;;;;;9.20;100.00;99195.44;5035740;28;20053;-72
2023/04/01 03:20:51;;;;;;;13.80;7.95;;;;;;;9.20;100.00;99198.06;5035809;28;20033;-72
2023/04/01 03:23:19;;;;;;;11.77;8.10;;;;;;;9.19;100.00;99198.97;5035756;28;20033;-72
2023/04/01 03:25:44;;;;;;;12.07;8.32;;;;;;;9.17;100.00;99198.13;5035870;28;20037;-72
2023/04/01 03:28:10;;;;;;;11.43;7.65;;;;;;;9.20;100.00;99205.13;5035674;28;20101;-72
2023/04/01 03:30:35;;;;;;;12.43;7.65;;;;;;;9.17;100.00;99200.75;5035620;28;20022;-72
2023/04/01 03:33:02;;;;;;;11.55;7.72;;;;;;;9.21;100.00;99213.03;5035454;28;20034;-72
2023/04/01 03:35:27;;;;;;;17.67;8.63;;;;;;;9.18;100.00;99207.78;5035414;28;20053;-72
2023/04/01 03:37:54;;;;;;;10.77;7.93;;;;;;;9.18;100.00;99204.28;5035465;28;20072;-72
2023/04/01 03:40:20;;;;;;;13.90;8.00;;;;;;;9.20;100.00;99215.66;5035256;28;20033;-72
2023/04/01 03:42:46;;;;;;;11.82;7.13;;;;;;;9.17;100.00;99211.31;5035000;28;20029;-72
2023/04/01 03:45:11;;;;;;;10.55;7.15;;;;;;;9.17;100.00;99215.72;5034061;28;20087;-72
2023/04/01 03:47:37;;;;;;;10.05;6.85;;;;;;;9.19;100.00;99213.91;5035397;28;20036;-72
2023/04/01 03:50:03;;;;;;;10.48;6.85;;;;;;;9.16;100.00;99211.31;5035293;28;20029;-72
2023/04/01 03:52:28;;;;;;;8.63;6.65;;;;;;;9.15;100.00;99218.34;5035585;28;20433;-72
2023/04/01 03:54:54;;;;;;;10.27;6.75;;;;;;;9.17;100.00;99220.97;5035099;28;20038;-72
2023/04/01 03:57:19;;;;;;;9.30;6.22;;;;;;;9.18;100.00;99223.59;5035339;28;20032;-72
2023/04/01 03:59:44;;;;;;;8.48;6.28;;;;;;;9.14;100.00;99221.88;5035092;28;20029;-72
2023/04/01 04:02:12;;;;;;;12.95;6.55;;;;;;;9.13;100.00;99220.13;5034869;28;20457;-72
2023/04/01 04:04:38;;;;;;;8.68;6.07;;;;;;;9.15;100.00;99222.75;5034910;28;20546;-72
2023/04/01 04:07:03;;;;;;;9.80;6.80;;;;;;;9.14;100.00;99231.53;5035281;28;20109;-72
2023/04/01 04:09:30;;;;;;;9.27;6.22;;;;;;;9.13;100.00;99230.66;5034557;28;20499;-72
2023/04/01 04:11:56;;;;;;;8.07;6.32;;;;;;;9.13;100.00;99235.06;5035090;28;20066;-72
2023/04/01 04:14:23;;;;;;;8.43;6.20;;;;;;;9.13;100.00;99232.44;5034885;28;20061;-72
2023/04/01 04:16:48;;;;;;;8.00;5.57;;;;;;;9.11;100.00;99240.34;5034974;28;20026;-71
2023/04/01 04:19:14;;;;;;;7.07;5.70;;;;;;;9.10;100.00;99230.69;5016931;28;20044;-71
2023/04/01 04:21:41;;;;;;;7.38;5.47;;;;;;;9.11;100.00;99240.34;5034732;28;20025;-71
2023/04/01 04:24:06;;;;;;;6.97;5.07;;;;;;;9.09;100.00;99243.88;5034732;28;20024;-71
2023/04/01 04:26:32;;;;;;;6.72;5.38;;;;;;;9.09;100.00;99246.53;5034591;28;20029;-71
2023/04/01 04:28:57;;;;;;;7.15;5.47;;;;;;;9.10;100.00;99256.16;5034492;28;20048;-71
2023/04/01 04:31:24;;;;;;;12.52;5.43;;;;;;;9.05;100.00;99248.31;5034563;28;20021;-72
2023/04/01 04:33:51;;;;;;;6.60;5.13;;;;;;;9.04;100.00;99251.84;5034523;28;20364;-71
2023/04/01 04:36:16;;;;;;;6.45;5.15;;;;;;;9.03;100.00;99255.34;5034513;28;20032;-70
2023/04/01 04:38:42;;;;;;;6.90;5.20;;;;;;;9.02;100.00;99259.72;5034303;28;20030;-71
2023/04/01 04:41:15;;;;;;;7.32;5.10;;;;;;;9.02;100.00;99262.38;5034255;28;20021;-71
2023/04/01 04:43:41;;;;;;;5.70;4.45;;;;;;;9.03;100.00;99264.09;5034112;28;20018;-71
2023/04/01 04:46:08;;;;;;;6.18;4.50;;;;;;;9.01;100.00;99265.91;5034214;28;20484;-71
2023/04/01 04:48:35;;;;;;;5.15;4.40;;;;;;;9.00;100.00;99264.16;5034165;28;20021;-70
2023/04/01 04:51:00;;;;;;;5.93;4.43;;;;;;;8.98;100.00;99265.91;5034355;28;20018;-70
2023/04/01 04:53:26;;;;;;;7.20;4.53;;;;;;;8.98;100.00;99265.03;5033463;28;20482;-70
2023/04/01 04:55:51;;;;;;;5.32;4.03;;;;;;;8.94;100.00;99265.94;5034155;28;20049;-71
2023/04/01 04:58:18;;;;;;;5.38;4.25;;;;;;;8.99;100.00;99272.97;5033953;28;20028;-71
2023/04/01 05:00:44;;;;;;;5.10;3.72;;;;;;;8.98;100.00;99284.34;5033878;28;20060;-71
2023/04/01 05:03:10;;;;;;;6.60;4.40;;;;;;;8.96;100.00;99282.63;5033544;28;20049;-71
2023/04/01 05:05:36;;;;;;;5.88;4.50;;;;;;;8.95;100.00;99287.03;5033731;28;20029;-71
2023/04/01 05:08:02;;;;;;;6.22;3.72;;;;;;;8.98;100.00;99291.38;5033579;28;20060;-71
2023/04/01 05:10:27;;;;;;;6.72;4.20;;;;;;;8.97;100.00;99292.28;5033614;28;20025;-71
2023/04/01 05:12:53;;;;;;;5.13;4.05;;;;;;;8.95;100.00;99281.78;5033771;28;20030;-71
2023/04/01 05:15:18;;;;;;;5.20;3.85;;;;;;;8.96;100.00;99299.31;5033712;28;20065;-71
2023/04/01 05:17:43;;;;;;;6.03;4.30;;;;;;;8.95;100.00;99299.31;5032560;28;20041;-71
2023/04/01 05:20:11;;;;;;;4.78;4.20;;;;;;;8.96;100.00;99306.34;5033573;28;20235;-71
2023/04/01 05:22:36;;;;;;;5.25;4.10;;;;;;;8.94;100.00;99311.59;5033527;28;20503;-70
2023/04/01 05:25:02;;;;;;;7.10;4.47;;;;;;;8.92;100.00;99299.34;5033273;28;20033;-71
2023/04/01 05:27:27;;;;;;;6.70;4.50;;;;;;;8.96;100.00;99316.88;5033654;28;20459;-71
2023/04/01 05:29:53;;;;;;;6.10;4.45;;;;;;;8.97;100.00;99313.34;5033727;28;20434;-70
2023/04/01 05:32:18;;;;;;;7.40;4.15;;;;;;;8.94;100.00;99319.50;5033211;28;20034;-70
2023/04/01 05:34:44;;;;;;;4.82;4.22;;;;;;;8.96;100.00;99316.88;5033329;28;20033;-70
2023/04/01 05:37:10;;;;;;;4.93;3.65;;;;;;;8.97;100.00;99324.75;5033312;28;20033;-70
2023/04/01 05:39:37;;;;;;;4.90;4.20;;;;;;;8.96;100.00;99337.97;5033147;28;20119;-70
2023/04/01 05:42:04;;;;;;;5.53;4.00;;;;;;;8.96;100.00;99340.59;5033576;28;20037;-70
2023/04/01 05:44:29;;;;;;;5.80;4.22;;;;;;;8.95;100.00;99333.56;5033206;28;20049;-70
2023/04/01 05:46:55;;;;;;;4.78;4.22;;;;;;;8.95;100.00;99339.72;5033264;28;20490;-70
2023/04/01 05:49:20;;;;;;;5.93;4.72;;;;;;;8.94;100.00;99337.94;5033229;28;20332;-71
2023/04/01 05:51:46;;;;;;;6.40;4.43;;;;;;;8.94;100.00;99348.50;5033374;28;20018;-71
2023/04/01 05:54:11;;;;;;;6.63;4.70;;;;;;;8.95;100.00;99347.63;5032977;28;20037;-71
2023/04/01 05:56:37;;;;;;;6.00;4.38;;;;;;;8.97;100.00;99355.50;5033176;28;20025;-71
2023/04/01 05:59:02;;;;;;;6.25;4.60;;;;;;;8.99;100.00;99357.25;5033102;28;20030;-71
2023/04/01 06:01:27;;;;;;;7.10;5.03;;;;;;;9.00;100.00;99361.63;5033012;28;20025;-71
2023/04/01 06:03:55;;;;;;;7.13;5.22;;;;;;;9.01;100.00;99365.13;5032478;28;20382;-71
2023/04/01 06:06:29;;;;;;;7.10;5.70;;;;;;;9.05;100.00;99368.63;5033219;28;20026;-71
2023/04/01 06:08:57;;;;;;;11.20;6.40;;;;;;;9.03;100.00;99373.91;5032702;28;20108;-71
2023/04/01 06:11:33;;;;;;;9.90;6.30;;;;;;;9.05;100.00;99382.69;5033042;28;20504;-71
2023/04/01 06:14:10;;;;;;;9.05;6.55;;;;;;;9.05;100.00;99384.44;5032954;28;20064;-71
2023/04/01 06:16:49;;;;;;;9.50;7.15;;;;;;;9.07;100.00;99388.78;5033100;28;20026;-71
2023/04/01 06:19:24;;;;;;;9.52;7.40;;;;;;;9.06;100.00;99388.81;5032893;28;20076;-71
2023/04/01 06:21:56;;;;;;;9.60;7.22;;;;;;;9.09;100.00;99394.94;5032803;28;20025;-71
2023/04/01 06:24:33;;;;;;;11.60;7.63;;;;;;;9.12;100.00;99401.94;5032912;28;20033;-71
2023/04/01 06:27:20;;;;;;;9.32;6.57;;;;;;;9.13;100.00;99398.44;5032735;28;20025;-71
2023/04/01 06:30:19;;;;;;;8.60;6.05;;;;;;;9.14;100.00;99403.69;5032715;28;20029;-71
2023/04/01 06:33:14;;;;;;;8.57;6.05;;;;;;;9.18;100.00;99412.47;5032479;28;20029;-71
2023/04/01 06:36:01;;;;;;;8.18;6.00;;;;;;;9.20;100.00;99415.94;5001777;28;20487;-72
2023/04/01 06:39:01;;;;;;;11.60;7.07;;;;;;;9.20;100.00;99414.19;5031568;28;20132;-72
2023/04/01 06:41:44;;;;;;;9.55;6.60;;;;;;;9.21;100.00;99417.72;5032657;28;20021;-71
2023/04/01 06:44:34;;;;;;;11.48;6.97;;;;;;;9.20;100.00;99416.81;5032657;28;20037;-71
2023/04/01 06:47:26;;;;;;;9.90;7.13;;;;;;;9.21;100.00;99417.72;5032715;28;20049;-72
2023/04/01 06:50:13;;;;;;;10.43;7.93;;;;;;;9.23;100.00;99426.47;5032493;28;20036;-71
2023/04/01 06:52:58;;;;;;;10.65;8.20;;;;;;;9.20;100.00;99424.72;5032821;28;20048;-71
2023/04/01 06:55:46;;;;;;;13.48;8.10;;;;;;;9.27;100.00;99439.63;5032516;28;20467;-72
2023/04/01 06:58:23;;;;;;;11.18;8.48;;;;;;;9.29;100.00;99442.22;5032425;28;20040;-72
2023/04/01 07:00:53;;;;;;;14.00;8.88;;;;;;;9.32;100.00;99451.91;5032499;28;20037;-71
2023/04/01 07:03:30;;;;;;;15.82;9.70;;;;;;;9.32;100.00;99444.00;5032072;28;20025;-71
2023/04/01 07:06:04;;;;;;;13.25;9.60;;;;;;;9.34;100.00;99450.16;5032484;28;20029;-71
2023/04/01 07:08:33;;;;;;;15.70;10.50;;;;;;;9.36;100.00;99459.78;5032024;28;20047;-72
2023/04/01 07:11:02;;;;;;;15.85;11.52;;;;;;;9.37;100.00;99458.88;5032505;28;20525;-72
2023/04/01 07:13:52;;;;;;;13.30;10.27;;;;;;;9.41;100.00;99459.75;5031073;28;20022;-71
2023/04/01 07:16:27;;;;;;;13.90;10.38;;;;;;;9.44;100.00;99460.59;5033200;28;20501;-71
2023/04/01 07:19:29;;;;;;;16.52;10.38;;;;;;;9.49;100.00;99466.72;5034548;28;20030;-71
2023/04/01 07:22:13;;;;;;;15.55;10.98;;;;;;;9.52;100.00;99474.59;5035857;28;20034;-71
2023/04/01 07:24:42;;;;;;;15.18;10.43;;;;;;;9.57;100.00;99466.66;5034594;28;20493;-71
2023/04/01 07:27:13;;;;;;;16.98;10.48;;;;;;;9.59;100.00;99477.19;5035694;28;20030;-71
2023/04/01 07:29:39;;;;;;;15.23;11.32;;;;;;;9.61;100.00;99478.94;5035711;28;20040;-71
2023/04/01 07:32:31;;;;;;;14.55;10.18;;;;;;;9.62;100.00;99479.81;5035770;28;20037;-71
2023/04/01 07:35:09;;;;;;;13.52;9.55;;;;;;;9.67;100.00;99489.44;5036000;28;20026;-72
2023/04/01 07:37:45;;;;;;;13.43;9.45;;;;;;;9.68;100.00;99491.19;5035604;28;20033;-72
2023/04/01 07:40:49;;;;;;;13.93;9.95;;;;;;;9.71;100.00;99493.78;5035639;28;20025;-72
2023/04/01 07:43:38;;;;;;;14.82;9.85;;;;;;;9.70;100.00;99501.72;5031592;28;20076;-72
2023/04/01 07:46:33;;;;;;;15.15;9.65;;;;;;;9.70;100.00;99507.00;5035637;28;20021;-72
2023/04/01 07:49:17;;;;;;;17.92;10.70;;;;;;;9.72;100.00;99513.13;5035474;28;20032;-72
2023/04/01 07:52:08;;;;;;;18.38;10.82;;;;;;;9.75;100.00;99513.13;5035454;28;20025;-72
2023/04/01 07:54:52;;;;;;;15.30;10.15;;;;;;;9.80;100.00;99519.22;5035038;28;20033;-72
2023/04/01 07:57:17;;;;;;;16.98;10.32;;;;;;;9.82;100.00;99520.09;5035186;28;20033;-72
2023/04/01 07:59:55;;;;;;;19.83;10.15;;;;;;;9.82;100.00;99527.16;5035186;28;20029;-72
2023/04/01 08:02:58;;;;;;;19.80;10.50;;;;;;;9.84;100.00;99526.22;5035143;28;20029;-72
2023/04/01 08:05:30;;;;;;;17.10;9.65;;;;;;;9.86;100.00;99532.38;5035130;28;20099;-72
2023/04/01 08:08:06;;;;;;;18.13;10.43;;;;;;;9.87;100.00;99538.53;5034934;28;20064;-72
2023/04/01 08:11:00;;;;;;;16.08;9.98;;;;;;;9.90;100.00;99539.41;5035110;28;20030;-72
2023/04/01 08:13:34;;;;;;;14.55;9.95;;;;;;;9.98;100.00;99534.94;4999847;28;20037;-72
2023/04/01 08:16:05;;;;;;;16.40;9.77;;;;;;;10.04;100.00;99550.72;5034916;28;20029;-72
2023/04/01 08:19:25;;;;;;;15.68;9.52;;;;;;;10.12;100.00;99562.97;5034733;28;20025;-72
2023/04/01 08:21:52;;;;;;;16.73;9.75;;;;;;;10.11;100.00;99550.69;4971608;28;20543;-71
2023/04/01 08:24:26;;;;;;;16.48;9.60;;;;;;;10.16;100.00;99554.16;5019695;28;20037;-71
2023/04/01 08:26:56;;;;;;;15.48;9.75;;;;;;;10.17;100.00;99563.81;5034451;28;20091;-71
2023/04/01 08:29:30;;;;;;;15.95;9.63;;;;;;;10.15;100.00;99560.28;5033587;28;20423;-71
2023/04/01 08:32:25;;;;;;;16.75;9.82;;;;;;;10.19;100.00;99572.59;5034485;28;20040;-71
2023/04/01 08:35:30;;;;;;;15.20;9.73;;;;;;;10.21;100.00;99569.06;5034751;28;20049;-71
2023/04/01 08:38:01;;;;;;;14.05;8.68;;;;;;;10.25;100.00;99573.44;4995367;28;20044;-71
2023/04/01 08:40:49;;;;;;;15.32;9.23;;;;;;;10.31;100.00;99576.91;5034307;28;20380;-71
2023/04/01 08:43:44;;;;;;;13.05;9.30;;;;;;;10.33;100.00;99581.31;5033291;28;20064;-71
2023/04/01 08:46:56;;;;;;;14.85;9.30;;;;;;;10.37;100.00;99579.53;5034289;28;20391;-71
2023/04/01 08:49:49;;;;;;;14.17;9.40;;;;;;;10.38;100.00;99592.72;4984395;28;20480;-71
2023/04/01 08:52:37;;;;;;;14.75;10.25;;;;;;;10.38;100.00;99598.00;5034191;28;20418;-71
2023/04/01 08:55:19;;;;;;;16.67;9.43;;;;;;;10.39;100.00;99593.59;5034194;28;20029;-71
2023/04/01 08:58:04;;;;;;;14.32;9.35;;;;;;;10.43;100.00;99606.75;5033107;28;20038;-71
2023/04/01 09:00:43;;;;;;;16.88;10.02;;;;;;;10.46;100.00;99609.38;5033953;28;20018;-71
2023/04/01 09:03:21;;;;;;;15.57;9.65;;;;;;;10.47;100.00;99607.59;5033761;28;20076;-71
2023/04/01 09:06:10;;;;;;;11.95;8.45;;;;;;;10.45;100.00;99619.97;5032409;28;20567;-71
2023/04/01 09:09:06;;;;;;;12.85;8.65;;;;;;;10.44;100.00;99626.09;5033509;28;20052;-71
2023/04/01 09:11:59;;;;;;;14.63;9.43;;;;;;;10.48;100.00;99625.19;5017367;28;20049;-71
2023/04/01 09:15:03;;;;;;;19.25;9.52;;;;;;;10.49;100.00;99634.84;5032516;28;20033;-71
2023/04/01 09:17:47;;;;;;;15.98;9.65;;;;;;;10.49;100.00;99635.75;5033672;28;20025;-71
2023/04/01 09:20:34;;;;;;;15.40;9.18;;;;;;;10.59;100.00;99633.03;5033638;28;20033;-71
2023/04/01 09:22:59;;;;;;;13.48;9.00;;;;;;;10.66;100.00;99640.00;5033602;28;20029;-70
2023/04/01 09:25:48;;;;;;;13.30;8.65;;;;;;;10.74;100.00;99639.03;5033566;28;20382;-71
2023/04/01 09:29:00;;;;;;;13.40;8.68;;;;;;;10.84;100.00;99646.91;5033732;28;20041;-71
2023/04/01 09:31:44;;;;;;;14.80;8.88;;;;;;;10.88;100.00;99640.69;4934018;29;20111;-70
2023/04/01 09:34:15;;;;;;;10.43;7.07;;;;;;;10.91;100.00;99643.28;4933985;29;20036;-70
2023/04/01 09:36:45;;;;;;;12.95;7.80;;;;;;;11.00;100.00;99643.19;4996485;28;20033;-70
2023/04/01 09:39:48;;;;;;;12.15;7.72;;;;;;;11.08;100.00;99645.75;5032770;28;20116;-70
2023/04/01 09:42:55;;;;;;;9.85;6.97;;;;;;;11.12;100.00;99652.75;5033449;28;20025;-70
2023/04/01 09:45:45;;;;;;;9.20;6.20;;;;;;;11.13;100.00;99652.75;4992123;28;20394;-71
2023/04/01 09:48:25;;;;;;;8.70;6.03;;;;;;;11.11;100.00;99664.25;5033225;28;20032;-71
2023/04/01 09:51:06;;;;;;;8.38;5.75;;;;;;;11.13;100.00;99657.16;5032857;28;20068;-70
2023/04/01 09:53:55;;;;;;;8.38;6.35;;;;;;;11.11;100.00;99659.81;5033338;28;20037;-70
2023/04/01 09:56:57;;;;;;;9.40;6.63;;;;;;;11.18;100.00;99661.53;5033432;28;20040;-70
2023/04/01 09:59:47;;;;;;;8.18;6.05;;;;;;;11.22;100.00;99665.88;5033113;28;20029;-70
2023/04/01 10:02:59;;;;;;;8.32;5.80;;;;;;;11.20;100.00;99677.34;5033110;28;20033;-70
2023/04/01 10:05:52;;;;;;;8.27;6.30;;;;;;;11.18;100.00;99674.75;5033003;28;20121;-70
2023/04/01 10:08:17;;;;;;;;;;;;;;;11.21;100.00;99677.31;5031980;28;20099;-70
2023/04/01 10:11:01;;;;;;;9.63;5.85;;;;;;;11.18;100.00;99676.50;5032811;28;19913;-70
2023/04/01 10:13:48;;;;;;;9.75;6.30;;;;;;;11.16;100.00;99686.22;5032952;28;20026;-70
2023/04/01 10:16:34;;;;;;;7.63;6.18;;;;;;;11.15;100.00;99689.75;5032964;28;20387;-70
2023/04/01 10:19:24;;;;;;;7.50;6.00;;;;;;;11.14;100.00;99695.94;5032837;28;20040;-70
2023/04/01 10:22:23;;;;;;;9.52;6.65;;;;;;;11.13;100.00;99695.03;5032853;28;20040;-70
2023/04/01 10:25:05;;;;;;;9.30;7.00;;;;;;;11.11;100.00;99702.13;5032945;28;20022;-70
2023/04/01 10:27:31;;;;;;;;;;;;;;;11.14;100.00;99702.09;5033446;28;20033;-70
2023/04/01 10:30:29;;;;;;;12.10;7.55;;;;;;;11.10;100.00;99700.38;5032799;28;19916;-70
2023/04/01 10:33:15;;;;;;;9.80;7.10;;;;;;;11.09;100.00;99709.22;5032661;28;20025;-70
2023/04/01 10:35:49;;;;;;;9.05;7.43;;;;;;;11.08;100.00;99711.84;5032671;28;20033;-70
2023/04/01 10:38:14;;;;;;;9.02;7.70;;;;;;;11.04;100.00;99714.50;5032635;28;20033;-70
2023/04/01 10:40:58;;;;;;;9.65;7.75;;;;;;;11.09;100.00;99713.59;5032911;28;20379;-70
2023/04/01 10:43:35;;;;;;;9.95;7.78;;;;;;;11.10;100.00;99713.59;5031354;28;20116;-70
2023/04/01 10:46:10;;;;;;;11.35;8.48;;;;;;;11.11;100.00;99725.91;5031287;28;20030;-70
2023/04/01 10:49:00;;;;;;;9.20;7.88;;;;;;;11.12;100.00;99726.78;5032611;28;20112;-70
2023/04/01 10:51:40;;;;;;;10.30;8.20;;;;;;;11.16;100.00;99712.66;5033751;28;20040;-70
2023/04/01 10:54:35;;;;;;;10.68;7.97;;;;;;;11.21;100.00;99724.06;5036447;28;20029;-70
2023/04/01 10:57:00;;;;;;;10.15;8.32;;;;;;;11.24;100.00;99726.69;4930294;28;20043;-70
2023/04/01 10:59:54;;;;;;;10.10;7.80;;;;;;;11.31;100.00;99731.03;5031122;28;20036;-70
2023/04/01 11:03:07;;;;;;;11.57;8.48;;;;;;;11.29;100.00;99730.16;5036448;28;20122;-70
2023/04/01 11:05:51;;;;;;;;;;;;;;;11.27;100.00;99732.81;4956946;28;20046;-70
2023/04/01 11:08:38;;;;;;;10.50;8.43;;;;;;;11.10;100.00;99716.25;5029151;28;19971;-70
2023/04/01 11:11:23;;;;;;;13.23;9.45;;;;;;;11.20;100.00;99735.53;5036169;28;20470;-70
2023/04/01 11:13:49;;;;;;;10.85;8.73;;;;;;;11.13;100.00;99739.97;5036153;28;20474;-70
2023/04/01 11:16:42;;;;;;;11.27;8.70;;;;;;;11.07;100.00;99732.13;5034671;28;20156;-70
2023/04/01 11:19:32;;;;;;;9.98;8.68;;;;;;;11.04;100.00;99742.72;5036152;28;20029;-69
2023/04/01 11:22:39;;;;;;;11.70;9.23;;;;;;;11.07;100.00;99748.00;5035987;28;20471;-69
2023/04/01 11:25:34;;;;;;;12.68;9.02;;;;;;;11.03;100.00;99752.41;5035505;28;20038;-70
2023/04/01 11:28:24;;;;;;;13.13;9.52;;;;;;;11.03;100.00;99755.06;5034695;28;20066;-70
2023/04/01 11:30:49;;;;;;;15.27;10.32;;;;;;;11.02;100.00;99760.38;5035963;28;20097;-70
2023/04/01 11:33:24;;;;;;;13.88;10.57;;;;;;;11.02;100.00;99755.09;5035795;28;20436;-71
2023/04/01 11:36:07;;;;;;;14.68;11.30;;;;;;;11.05;100.00;99768.28;5035683;28;20021;-70
2023/04/01 11:38:58;;;;;;;13.90;10.15;;;;;;;11.05;100.00;99765.66;5035944;28;20036;-71
2023/04/01 11:41:42;;;;;;;12.98;10.32;;;;;;;11.06;100.00;99775.31;5035415;28;20368;-71
2023/04/01 11:44:28;;;;;;;17.33;11.50;;;;;;;11.03;100.00;99778.84;5034022;28;20087;-71
2023/04/01 11:46:59;;;;;;;13.50;11.52;;;;;;;11.02;100.00;99784.16;5035395;28;20048;-71
2023/04/01 11:49:48;;;;;;;14.00;10.55;;;;;;;11.06;100.00;99779.72;5035318;28;20570;-71
2023/04/01 11:52:38;;;;;;;13.52;10.07;;;;;;;11.08;100.00;99789.38;5035380;28;20030;-71
2023/04/01 11:55:25;;;;;;;13.30;10.32;;;;;;;11.14;100.00;99792.00;5035160;28;20495;-71
2023/04/01 11:58:12;;;;;;;12.45;9.57;;;;;;;11.17;100.00;99791.94;5035103;28;20029;-71
2023/04/01 12:00:59;;;;;;;12.85;10.00;;;;;;;11.26;100.00;99789.25;5035050;28;20495;-71
2023/04/01 12:03:30;;;;;;;10.68;8.93;;;;;;;11.35;100.00;99797.97;5033072;28;20029;-71
2023/04/01 12:06:01;;;;;;;10.88;8.63;;;;;;;11.39;100.00;99792.66;5035241;28;20021;-71